Aviation Digital Data Service (ADDS)

Output produced by METARs form (1821 UTC 26 October 2021)
found at http://aviationweather.gov/metar/data/
 
LFLX 261730Z AUTO 32005KT CAVOK 11/09 Q1026 NOSIG
TAF LFLX 261700Z 2618/2724 VRB04KT 9999 SCT025 
     BECMG 2621/2624 4000 BR NSC 
     PROB40 
     TEMPO 2700/2709 0400 FG VV/// 
     TEMPO 2709/2716 09010KT 
     PROB30 
     TEMPO 2709/2711 7000 BKN006 
     BECMG 2711/2712 9999 NSW 
     PROB30 
     TEMPO 2722/2724 4000 BR